This is the latest recevied weather packets stored in our database for station/object K9UO. If no packets are shown the sender has not sent any weather packets the latest 10 day(s).
| Time | Temp. | Humidity | Pressure | Rain* | Wind** | Luminosity | Snow |
|---|---|---|---|---|---|---|---|
| 1777159810 | 17.78° C | 1% | 1012.1 hPa | 0 mm | - | - | - |
| 1777158905 | 18.89° C | 8% | 1011.8 hPa | 0 mm | - | - | - |
| 1777158071 | 19.44° C | 13% | 1011.7 hPa | 0 mm | - | - | - |
| 1777157165 | 19.44° C | 19% | 1011.6 hPa | 0 mm | - | - | - |
| 1777156252 | 20° C | 22% | 1011.4 hPa | 0 mm | - | - | - |
| 1777155348 | 20° C | 25% | 1011.3 hPa | 0 mm | - | - | - |
| 1777154443 | 20.56° C | 34% | 1011.2 hPa | 0 mm | - | - | - |
| 1777153540 | 20.56° C | 44% | 1011 hPa | 0 mm | - | - | - |
| 1777152634 | 21.11° C | 42% | 1010.9 hPa | 0 mm | - | - | - |
| 1777151730 | 21.11° C | 48% | 1010.7 hPa | 0 mm | - | - | - |
| 1777150826 | 21.67° C | 49% | 1010.6 hPa | 0 mm | - | - | - |
| 1777149921 | 21.67° C | 49% | 1010.6 hPa | 0 mm | - | - | - |
| 1777149017 | 21.67° C | 50% | 1010.6 hPa | 0 mm | - | - | - |
| 1777148119 | 21.11° C | 46% | 1010.6 hPa | 0 mm | - | - | - |
| 1777147209 | 21.11° C | 49% | 1010.7 hPa | 0 mm | - | - | - |
| 1777146304 | 21.11° C | 45% | 1010.8 hPa | 0 mm | - | - | - |
| 1777145459 | 21.11° C | 38% | 1010.9 hPa | 0 mm | - | - | - |
| 1777144579 | 20° C | 32% | 1011.1 hPa | 0 mm | - | - | - |
| 1777143650 | 19.44° C | 28% | 1011.2 hPa | 0 mm | - | - | - |
| 1777142751 | 19.44° C | 13% | 1011.2 hPa | 0 mm | - | - | - |
| 1777141861 | 19.44° C | 32% | 1011.3 hPa | 0 mm | - | - | - |
| 1777140944 | 18.89° C | 15% | 1011.3 hPa | 0 mm | - | - | - |
| 1777140045 | 18.33° C | 7% | 1011.2 hPa | 0 mm | - | - | - |
| 1777139140 | 18.33° C | 4% | 1011.2 hPa | 0 mm | - | - | - |
| 1777138231 | 17.78° C | 1% | 1011.2 hPa | 0 mm | - | - | - |
* Rain latest hour (hover to see other rain measurements)
** Current wind speed in m/s (hover to see current wind gust speed)